createdAt,value
2022-08-24T00:00:37.450Z,38.50
2022-08-24T00:03:04.446Z,38.25
2022-08-24T00:05:31.346Z,40.50
2022-08-24T00:07:58.294Z,41.00
2022-08-24T00:10:25.296Z,39.00
2022-08-24T00:12:52.303Z,40.00
2022-08-24T00:15:19.397Z,39.00
2022-08-24T00:17:46.316Z,38.00
2022-08-24T00:20:14.050Z,39.25
2022-08-24T00:22:41.036Z,38.50
2022-08-24T00:25:11.126Z,38.00
2022-08-24T00:27:40.045Z,37.00
2022-08-24T00:30:10.690Z,37.50
2022-08-24T00:32:37.722Z,38.75
2022-08-24T00:35:06.606Z,40.00
2022-08-24T00:37:34.627Z,37.50
2022-08-24T00:40:01.752Z,38.25
2022-08-24T00:42:28.809Z,38.25
2022-08-24T00:44:55.711Z,39.00
2022-08-24T00:47:28.510Z,37.50
2022-08-24T00:50:03.963Z,38.00
2022-08-24T00:52:36.890Z,40.00
2022-08-24T00:55:16.808Z,39.00
2022-08-24T00:57:48.308Z,38.75
2022-08-24T01:00:21.668Z,38.75
2022-08-24T01:02:53.121Z,39.00
2022-08-24T01:05:20.165Z,37.50
2022-08-24T01:07:48.668Z,38.00
2022-08-24T01:10:21.104Z,38.25
2022-08-24T01:13:00.056Z,38.00
2022-08-24T01:15:34.124Z,38.50
2022-08-24T01:18:06.418Z,39.00
2022-08-24T01:20:38.152Z,39.00
2022-08-24T01:23:42.694Z,39.00
2022-08-24T01:26:16.438Z,38.00
2022-08-24T01:28:45.866Z,37.25
2022-08-24T01:31:13.035Z,37.50
2022-08-24T01:33:40.008Z,37.25
2022-08-24T01:36:29.535Z,37.00
2022-08-24T01:39:02.316Z,37.50
2022-08-24T01:41:29.460Z,38.75
2022-08-24T01:43:58.895Z,39.00
2022-08-24T01:46:28.025Z,39.00
2022-08-24T01:48:57.124Z,38.00
2022-08-24T01:51:25.476Z,39.00
2022-08-24T01:53:53.216Z,39.00
2022-08-24T01:56:20.456Z,39.50
2022-08-24T01:58:51.577Z,38.00
2022-08-24T02:01:19.089Z,38.00
2022-08-24T02:03:48.388Z,37.00
2022-08-24T02:06:20.562Z,37.25
2022-08-24T02:08:47.948Z,38.00
2022-08-24T02:11:15.721Z,37.25
2022-08-24T02:13:42.887Z,37.00
2022-08-24T02:16:10.051Z,37.50
2022-08-24T02:18:38.136Z,38.00
2022-08-24T02:21:07.761Z,37.50
2022-08-24T02:23:36.384Z,36.00
2022-08-24T02:26:08.148Z,38.00
2022-08-24T02:28:35.532Z,38.00
2022-08-24T02:31:04.523Z,38.00
2022-08-24T02:33:35.829Z,38.00
2022-08-24T02:36:03.479Z,38.00
2022-08-24T02:38:31.664Z,37.75
2022-08-24T02:40:58.873Z,38.00
2022-08-24T02:43:26.678Z,37.00
2022-08-24T02:45:55.639Z,36.00
2022-08-24T02:48:23.396Z,38.00
2022-08-24T02:50:52.770Z,38.00
2022-08-24T02:53:23.043Z,37.00
2022-08-24T02:55:50.976Z,37.75
2022-08-24T02:58:18.515Z,40.00
2022-08-24T03:00:48.465Z,41.75
2022-08-24T03:03:18.493Z,41.00
2022-08-24T03:05:46.093Z,40.00
2022-08-24T03:08:13.266Z,40.00
2022-08-24T03:10:40.167Z,42.00
2022-08-24T03:13:07.891Z,42.00
2022-08-24T03:15:35.436Z,43.50
2022-08-24T03:18:10.181Z,43.00
2022-08-24T03:20:37.185Z,44.00
2022-08-24T03:23:04.999Z,46.00
2022-08-24T03:25:32.390Z,47.00
2022-08-24T03:27:59.848Z,46.00
2022-08-24T03:30:26.975Z,46.50
2022-08-24T03:32:54.106Z,46.50
2022-08-24T03:35:21.479Z,47.25
2022-08-24T03:37:49.940Z,47.50
2022-08-24T03:40:23.070Z,48.00
2022-08-24T03:42:55.353Z,47.00
2022-08-24T03:45:22.441Z,47.00
2022-08-24T03:47:50.062Z,47.00
2022-08-24T03:50:17.693Z,47.75
2022-08-24T03:52:44.579Z,49.00
2022-08-24T03:55:11.836Z,48.00
2022-08-24T03:57:38.732Z,48.00
2022-08-24T04:00:09.711Z,48.00
2022-08-24T04:02:41.687Z,47.00
2022-08-24T04:05:12.067Z,49.00
2022-08-24T04:07:39.259Z,49.25
2022-08-24T04:10:06.803Z,50.00
2022-08-24T04:12:33.804Z,49.00
2022-08-24T04:15:01.584Z,50.00
2022-08-24T04:17:42.348Z,50.00
2022-08-24T04:20:10.096Z,51.00
2022-08-24T04:22:39.516Z,50.00
2022-08-24T04:25:09.174Z,47.00
2022-08-24T04:27:39.811Z,49.25
2022-08-24T04:30:08.956Z,49.00
2022-08-24T04:32:56.730Z,49.25
2022-08-24T04:35:24.806Z,50.00
2022-08-24T04:37:51.708Z,50.25
2022-08-24T04:40:20.615Z,48.00
2022-08-24T04:42:50.744Z,47.00
2022-08-24T04:45:17.655Z,50.00
2022-08-24T04:47:46.432Z,48.50
2022-08-24T04:50:14.039Z,47.00
2022-08-24T04:52:43.151Z,48.00
2022-08-24T04:55:10.759Z,48.00
2022-08-24T04:57:37.746Z,49.00
2022-08-24T05:00:07.401Z,47.50
2022-08-24T05:02:39.120Z,49.00
2022-08-24T05:05:09.521Z,47.00
2022-08-24T05:07:37.813Z,48.75
2022-08-24T05:10:07.467Z,49.00
2022-08-24T05:12:36.231Z,49.00
2022-08-24T05:15:08.734Z,48.00
2022-08-24T05:17:43.686Z,48.00
2022-08-24T05:20:19.183Z,48.00
2022-08-24T05:22:46.079Z,48.00
2022-08-24T05:25:15.398Z,48.00
2022-08-24T05:27:42.431Z,47.75
2022-08-24T05:30:10.292Z,49.00
2022-08-24T05:32:38.703Z,48.00
2022-08-24T05:35:07.007Z,50.00
2022-08-24T05:37:39.273Z,48.00
2022-08-24T05:40:18.769Z,46.25
2022-08-24T05:42:53.139Z,48.75
2022-08-24T05:45:22.958Z,49.00
2022-08-24T05:47:50.873Z,48.00
2022-08-24T05:50:41.057Z,48.25
2022-08-24T05:53:11.750Z,50.00
2022-08-24T05:55:39.399Z,48.75
2022-08-24T05:58:23.031Z,49.50
2022-08-24T06:01:00.071Z,49.50
2022-08-24T06:03:29.935Z,49.00
2022-08-24T06:05:56.940Z,48.00
2022-08-24T06:08:24.279Z,48.75
2022-08-24T06:10:51.305Z,48.25
2022-08-24T06:13:18.763Z,49.75
2022-08-24T06:16:04.738Z,49.00
2022-08-24T06:18:34.566Z,49.00
2022-08-24T06:21:13.052Z,50.50
2022-08-24T06:23:43.148Z,50.00
2022-08-24T06:26:15.447Z,50.00
2022-08-24T06:28:44.003Z,50.00
2022-08-24T06:31:12.351Z,51.00
2022-08-24T06:33:40.750Z,50.00
2022-08-24T06:36:09.033Z,51.00
2022-08-24T06:38:35.973Z,51.25
2022-08-24T06:41:06.245Z,50.00
2022-08-24T06:43:34.261Z,49.00
2022-08-24T06:46:09.928Z,49.00
2022-08-24T06:48:41.270Z,50.00
2022-08-24T06:51:14.453Z,49.00
2022-08-24T06:53:42.284Z,49.00
2022-08-24T06:56:11.236Z,50.00
2022-08-24T06:58:39.595Z,50.00
2022-08-24T07:01:21.318Z,47.50
2022-08-24T07:03:49.572Z,49.00
2022-08-24T07:06:37.704Z,49.50
2022-08-24T07:09:05.849Z,49.50
2022-08-24T07:11:33.102Z,50.00
2022-08-24T07:14:00.438Z,50.50
2022-08-24T07:16:27.461Z,51.75
2022-08-24T07:19:00.927Z,50.00
2022-08-24T07:21:28.623Z,50.00
2022-08-24T07:23:58.059Z,51.25
2022-08-24T07:26:28.603Z,50.00
2022-08-24T07:29:02.290Z,49.00
2022-08-24T07:31:39.099Z,49.50
2022-08-24T07:34:17.330Z,49.25
2022-08-24T07:36:45.141Z,50.25
2022-08-24T07:39:12.852Z,51.50
2022-08-24T07:44:51.190Z,50.00
2022-08-24T07:47:37.817Z,51.50
2022-08-24T07:50:14.177Z,51.50
2022-08-24T07:52:41.327Z,51.00
2022-08-24T07:55:09.255Z,49.00
2022-08-24T07:57:42.068Z,50.25
2022-08-24T08:00:12.490Z,50.00
2022-08-24T08:02:44.863Z,50.00
2022-08-24T08:05:19.507Z,51.00
2022-08-24T08:07:52.256Z,51.00
2022-08-24T08:10:20.317Z,51.00
2022-08-24T08:12:47.353Z,52.00
2022-08-24T08:15:14.343Z,50.00
2022-08-24T08:17:55.974Z,51.00
2022-08-24T08:20:24.314Z,51.00
2022-08-24T08:22:51.521Z,50.00
2022-08-24T08:25:32.836Z,51.50
2022-08-24T08:28:12.748Z,50.50
2022-08-24T08:30:49.916Z,50.00
2022-08-24T08:33:17.103Z,49.75
2022-08-24T08:35:44.552Z,51.00
2022-08-24T08:38:12.012Z,51.00
2022-08-24T08:40:44.913Z,50.00
2022-08-24T08:43:25.851Z,51.00
2022-08-24T08:46:27.424Z,51.75
2022-08-24T08:49:41.580Z,51.50
2022-08-24T08:52:33.578Z,52.00
2022-08-24T08:55:03.521Z,51.25
2022-08-24T08:58:05.655Z,51.50
2022-08-24T09:00:49.715Z,51.50
2022-08-24T09:03:25.750Z,51.00
2022-08-24T09:06:32.944Z,52.00
2022-08-24T09:09:13.289Z,51.00
2022-08-24T09:11:55.219Z,51.00
2022-08-24T09:14:43.555Z,51.00
2022-08-24T09:17:48.128Z,51.00
2022-08-24T09:20:52.109Z,50.25
2022-08-24T09:23:28.956Z,49.00
2022-08-24T09:26:10.083Z,50.50
2022-08-24T09:28:49.713Z,51.00
2022-08-24T09:31:37.824Z,52.25
2022-08-24T09:34:18.726Z,51.00
2022-08-24T09:37:15.291Z,50.00
2022-08-24T09:39:59.800Z,50.00
2022-08-24T09:42:46.244Z,50.00
2022-08-24T09:45:31.400Z,50.00
2022-08-24T09:48:17.061Z,49.00
2022-08-24T09:50:47.108Z,50.50
2022-08-24T09:53:43.969Z,50.50
2022-08-24T09:56:45.509Z,50.00
2022-08-24T09:59:20.644Z,51.75
2022-08-24T10:02:26.015Z,49.00
2022-08-24T10:05:08.283Z,51.50
2022-08-24T10:07:54.766Z,51.00
2022-08-24T10:10:38.447Z,49.75
2022-08-24T10:13:08.398Z,47.00
2022-08-24T10:15:54.848Z,47.75
2022-08-24T10:18:58.603Z,49.00
2022-08-24T10:21:44.160Z,48.75
2022-08-24T10:24:59.214Z,51.00
2022-08-24T10:27:44.115Z,50.00
2022-08-24T10:30:35.691Z,49.50
2022-08-24T10:33:23.558Z,50.00
2022-08-24T10:36:20.978Z,50.50
2022-08-24T10:38:52.535Z,51.00
2022-08-24T10:41:56.885Z,51.00
2022-08-24T10:44:55.080Z,51.00
2022-08-24T10:47:55.271Z,50.00
2022-08-24T10:50:40.355Z,51.00
2022-08-24T10:53:30.186Z,50.50
2022-08-24T10:56:08.482Z,49.00
2022-08-24T10:58:41.536Z,49.00
2022-08-24T11:01:36.076Z,50.00
2022-08-24T11:04:10.768Z,48.00
2022-08-24T11:06:43.454Z,49.00
2022-08-24T11:09:19.657Z,49.75
2022-08-24T11:11:49.945Z,51.00
2022-08-24T11:14:16.734Z,51.00
2022-08-24T11:16:46.063Z,50.00
2022-08-24T11:19:21.977Z,49.50
2022-08-24T11:21:51.918Z,50.00
2022-08-24T11:24:18.764Z,51.00
2022-08-24T11:27:00.936Z,50.50
2022-08-24T11:29:49.100Z,52.00
2022-08-24T11:33:11.058Z,50.00
2022-08-24T11:35:41.035Z,51.25
2022-08-24T11:38:18.900Z,52.00
2022-08-24T11:41:13.047Z,52.00
2022-08-24T11:44:01.504Z,50.50
2022-08-24T11:46:35.136Z,50.50
2022-08-24T11:49:21.772Z,51.00
2022-08-24T11:52:03.225Z,50.50
2022-08-24T11:54:56.110Z,51.00
2022-08-24T11:57:48.276Z,52.00
2022-08-24T12:00:19.638Z,51.50
2022-08-24T12:03:09.694Z,50.75
2022-08-24T12:05:53.127Z,50.50
2022-08-24T12:08:27.656Z,51.00
2022-08-24T12:11:00.709Z,51.00
2022-08-24T12:13:27.578Z,50.00
2022-08-24T12:16:12.496Z,49.00
2022-08-24T12:19:27.500Z,50.25
2022-08-24T12:21:57.455Z,49.00
2022-08-24T12:24:53.746Z,49.75
2022-08-24T12:27:31.716Z,52.75
2022-08-24T12:30:14.272Z,50.50
2022-08-24T12:32:53.612Z,50.50
2022-08-24T12:35:29.814Z,51.00
2022-08-24T12:38:08.967Z,53.00
2022-08-24T12:41:00.104Z,51.00
2022-08-24T12:43:55.879Z,50.00
2022-08-24T12:46:25.794Z,51.00
2022-08-24T12:49:00.120Z,50.00
2022-08-24T12:52:11.616Z,51.00
2022-08-24T12:54:59.822Z,49.00
2022-08-24T12:57:53.983Z,49.75
2022-08-24T13:01:06.022Z,51.00
2022-08-24T13:03:38.621Z,48.00
2022-08-24T13:06:11.137Z,50.25
2022-08-24T13:08:46.956Z,50.50
2022-08-24T13:11:31.756Z,50.00
2022-08-24T13:13:58.702Z,49.00
2022-08-24T13:16:56.588Z,49.75
2022-08-24T13:19:23.546Z,49.50
2022-08-24T13:21:57.948Z,52.00
2022-08-24T13:24:30.635Z,49.00
2022-08-24T13:27:13.030Z,49.00
2022-08-24T13:29:45.270Z,49.00
2022-08-24T13:32:39.343Z,48.00
2022-08-24T13:35:40.320Z,48.50
2022-08-24T13:38:26.601Z,49.00
2022-08-24T13:41:13.391Z,49.50
2022-08-24T13:44:07.221Z,50.00
2022-08-24T13:46:53.140Z,50.00
2022-08-24T13:49:29.292Z,49.25
2022-08-24T13:52:20.791Z,49.00
2022-08-24T13:55:09.701Z,47.00
2022-08-24T13:57:51.501Z,49.00
2022-08-24T14:00:40.883Z,48.00
2022-08-24T14:03:13.649Z,48.00
2022-08-24T14:05:59.816Z,49.50
2022-08-24T14:08:54.187Z,49.00
2022-08-24T14:11:24.058Z,49.00
2022-08-24T14:14:44.587Z,48.00
2022-08-24T14:17:35.819Z,48.00
2022-08-24T14:20:22.514Z,47.50
2022-08-24T14:23:22.831Z,48.50
2022-08-24T14:25:50.378Z,48.00
2022-08-24T14:28:30.332Z,47.25
2022-08-24T14:31:25.234Z,47.00
2022-08-24T14:34:30.610Z,49.00
2022-08-24T14:37:01.603Z,48.50
2022-08-24T14:39:40.765Z,47.50
2022-08-24T14:42:58.831Z,48.00
2022-08-24T14:45:57.312Z,48.00
2022-08-24T14:48:42.453Z,49.00
2022-08-24T14:51:24.533Z,48.50
2022-08-24T14:54:02.360Z,50.00
2022-08-24T14:57:07.301Z,49.00
2022-08-24T14:59:49.091Z,48.00
2022-08-24T15:02:41.056Z,48.00
2022-08-24T15:05:26.731Z,46.00
2022-08-24T15:07:56.764Z,47.00
2022-08-24T15:10:28.144Z,49.00
2022-08-24T15:13:04.049Z,49.50
2022-08-24T15:15:46.089Z,49.00
2022-08-24T15:18:18.959Z,50.00
2022-08-24T15:21:23.743Z,51.00
2022-08-24T15:24:20.105Z,51.00
2022-08-24T15:27:12.568Z,50.00
2022-08-24T15:30:25.749Z,48.00
2022-08-24T15:33:19.304Z,47.00
2022-08-24T15:35:49.393Z,48.00
2022-08-24T15:38:31.132Z,47.50
2022-08-24T15:41:37.000Z,47.00
2022-08-24T15:44:29.583Z,47.00
2022-08-24T15:47:01.683Z,48.25
2022-08-24T15:49:45.162Z,51.50
2022-08-24T15:52:38.019Z,53.00
2022-08-24T15:55:07.295Z,53.00
2022-08-24T15:57:41.715Z,51.50
2022-08-24T16:00:21.378Z,51.00
2022-08-24T16:02:48.357Z,51.75
2022-08-24T16:05:23.555Z,52.50
2022-08-24T16:08:03.220Z,52.00
2022-08-24T16:10:30.287Z,51.50
2022-08-24T16:13:19.829Z,52.00
2022-08-24T16:15:55.856Z,51.00
2022-08-24T16:18:27.531Z,51.50
2022-08-24T16:20:57.646Z,50.25
2022-08-24T16:23:37.023Z,50.25
2022-08-24T16:26:22.925Z,51.00
2022-08-24T16:28:52.037Z,54.00
2022-08-24T16:31:48.875Z,52.00
2022-08-24T16:34:31.078Z,52.00
2022-08-24T16:37:01.074Z,52.00
2022-08-24T16:39:28.065Z,49.50
2022-08-24T16:41:58.857Z,49.00
2022-08-24T16:44:36.362Z,50.00
2022-08-24T16:47:03.584Z,49.25
2022-08-24T16:49:30.878Z,49.00
2022-08-24T16:52:20.917Z,50.00
2022-08-24T16:54:48.467Z,49.00
2022-08-24T16:57:22.591Z,49.75
2022-08-24T16:59:52.083Z,50.50
2022-08-24T17:02:30.261Z,50.00
2022-08-24T17:04:57.244Z,51.50
2022-08-24T17:07:28.216Z,52.50
2022-08-24T17:09:56.632Z,54.50
2022-08-24T17:12:24.373Z,54.00
2022-08-24T17:14:51.352Z,52.00
2022-08-24T17:17:21.390Z,53.25
2022-08-24T17:19:53.968Z,54.50
2022-08-24T17:22:23.019Z,53.50
2022-08-24T17:24:50.520Z,52.00
2022-08-24T17:27:19.290Z,50.00
2022-08-24T17:29:51.164Z,63.00
2022-08-24T17:32:18.090Z,60.50
2022-08-24T17:34:47.845Z,56.00
2022-08-24T17:37:15.420Z,55.75
2022-08-24T17:39:55.753Z,57.00
2022-08-24T17:42:47.273Z,54.50
2022-08-24T17:45:14.145Z,60.75
2022-08-24T17:47:42.395Z,55.75
2022-08-24T17:50:15.442Z,53.00
2022-08-24T17:52:43.803Z,51.50
2022-08-24T17:55:13.035Z,50.00
2022-08-24T17:57:46.942Z,48.50
2022-08-24T18:00:16.280Z,48.00
2022-08-24T18:02:43.359Z,48.00
2022-08-24T18:05:11.785Z,49.00
2022-08-24T18:07:53.220Z,49.00
2022-08-24T18:10:42.190Z,49.00
2022-08-24T18:13:10.363Z,49.00
2022-08-24T18:15:37.268Z,50.25
2022-08-24T18:18:10.478Z,51.00
2022-08-24T18:20:39.786Z,49.50
2022-08-24T18:23:11.879Z,48.00
2022-08-24T18:25:51.512Z,48.00
2022-08-24T18:28:22.262Z,48.00
2022-08-24T18:30:51.146Z,49.25
2022-08-24T18:33:18.046Z,49.00
2022-08-24T18:35:45.130Z,48.00
2022-08-24T18:38:12.640Z,47.75
2022-08-24T18:40:52.433Z,48.00
2022-08-24T18:43:23.373Z,48.00
2022-08-24T18:45:50.919Z,48.00
2022-08-24T18:48:17.851Z,51.00
2022-08-24T18:50:44.793Z,48.00
2022-08-24T18:53:12.050Z,48.00
2022-08-24T18:55:39.208Z,47.50
2022-08-24T18:58:06.221Z,48.00
2022-08-24T19:00:33.474Z,48.75
2022-08-24T19:03:06.716Z,49.00
2022-08-24T19:05:33.945Z,48.00
2022-08-24T19:08:03.524Z,49.00
2022-08-24T19:10:36.755Z,47.00
2022-08-24T19:13:09.177Z,48.00
2022-08-24T19:15:40.367Z,49.50
2022-08-24T19:18:11.548Z,48.00
2022-08-24T19:20:47.354Z,48.00
2022-08-24T19:23:41.996Z,48.00
2022-08-24T19:26:08.928Z,48.00
2022-08-24T19:28:35.790Z,47.00
2022-08-24T19:31:10.720Z,47.00
2022-08-24T19:33:42.484Z,48.00
2022-08-24T19:36:49.700Z,46.00
2022-08-24T19:39:17.820Z,46.25
2022-08-24T19:41:51.047Z,47.00
2022-08-24T19:44:27.131Z,48.25
2022-08-24T19:46:55.358Z,47.75
2022-08-24T19:49:22.444Z,47.00
2022-08-24T19:51:50.589Z,48.00
2022-08-24T19:54:18.440Z,48.00
2022-08-24T19:56:45.664Z,48.50
2022-08-24T19:59:27.881Z,47.00
2022-08-24T20:01:54.929Z,46.00
2022-08-24T20:04:21.805Z,46.25
2022-08-24T20:06:48.919Z,47.00
2022-08-24T20:09:15.967Z,46.00
2022-08-24T20:11:44.106Z,45.75
2022-08-24T20:14:10.926Z,47.75
2022-08-24T20:16:41.904Z,47.00
2022-08-24T20:19:20.754Z,47.75
2022-08-24T20:21:47.823Z,47.50
2022-08-24T20:24:14.644Z,47.00
2022-08-24T20:26:44.290Z,47.25
2022-08-24T20:29:12.321Z,48.50
2022-08-24T20:31:39.932Z,49.00
2022-08-24T20:34:07.200Z,47.00
2022-08-24T20:36:46.172Z,46.00
2022-08-24T20:39:14.527Z,47.00
2022-08-24T20:41:41.489Z,46.75
2022-08-24T20:44:08.415Z,47.00
2022-08-24T20:46:36.966Z,47.00
2022-08-24T20:49:06.530Z,47.00
2022-08-24T20:51:38.743Z,47.00
2022-08-24T20:54:09.717Z,46.00
2022-08-24T20:56:38.112Z,48.00
2022-08-24T20:59:09.164Z,46.00
2022-08-24T21:01:36.853Z,45.00
2022-08-24T21:04:05.439Z,47.00
2022-08-24T21:06:34.031Z,45.25
2022-08-24T21:09:01.043Z,46.00
2022-08-24T21:11:28.164Z,47.00
2022-08-24T21:14:00.902Z,49.00
2022-08-24T21:16:27.920Z,49.00
2022-08-24T21:19:33.116Z,49.00
2022-08-24T21:22:00.844Z,47.25
2022-08-24T21:24:27.799Z,47.00
2022-08-24T21:26:55.257Z,48.75
2022-08-24T21:29:22.332Z,46.50
2022-08-24T21:31:49.620Z,47.00
2022-08-24T21:34:16.484Z,45.00
2022-08-24T21:36:43.567Z,45.25
2022-08-24T21:39:11.229Z,47.00
2022-08-24T21:41:38.653Z,45.50
2022-08-24T21:44:05.721Z,45.50
2022-08-24T21:46:37.979Z,44.00
2022-08-24T21:49:05.464Z,48.25
2022-08-24T21:51:32.986Z,47.00
2022-08-24T21:54:00.233Z,46.00
2022-08-24T21:56:30.726Z,46.25
2022-08-24T21:58:57.743Z,47.00
2022-08-24T22:01:24.560Z,46.00
2022-08-24T22:03:51.453Z,44.00
2022-08-24T22:06:18.489Z,44.50
2022-08-24T22:08:45.446Z,45.00
2022-08-24T22:11:15.118Z,46.00
2022-08-24T22:13:47.959Z,45.00
2022-08-24T22:16:14.945Z,45.00
2022-08-24T22:18:41.847Z,46.00
2022-08-24T22:21:12.896Z,46.50
2022-08-24T22:23:39.929Z,45.25
2022-08-24T22:26:08.463Z,47.00
2022-08-24T22:28:37.249Z,45.75
2022-08-24T22:31:18.486Z,45.00
2022-08-24T22:33:45.856Z,45.00
2022-08-24T22:36:14.525Z,45.50
2022-08-24T22:38:42.229Z,46.75
2022-08-24T22:41:10.045Z,45.50
2022-08-24T22:43:37.301Z,45.00
2022-08-24T22:46:04.155Z,46.00
2022-08-24T22:48:31.092Z,47.00
2022-08-24T22:50:57.952Z,46.25
2022-08-24T22:53:24.831Z,45.00
2022-08-24T22:55:51.698Z,44.50
2022-08-24T22:58:18.589Z,45.50
2022-08-24T23:00:45.510Z,45.00
2022-08-24T23:03:12.501Z,45.00
2022-08-24T23:05:39.338Z,44.75
2022-08-24T23:08:06.169Z,45.50
2022-08-24T23:10:33.135Z,44.50
2022-08-24T23:13:00.180Z,46.00
2022-08-24T23:15:27.139Z,45.00
2022-08-24T23:17:54.045Z,44.50
2022-08-24T23:20:20.837Z,45.00
2022-08-24T23:22:47.758Z,44.25
2022-08-24T23:25:14.685Z,46.00
2022-08-24T23:27:42.356Z,44.00
2022-08-24T23:30:12.936Z,44.00
2022-08-24T23:32:40.518Z,44.00
2022-08-24T23:35:07.968Z,45.00
2022-08-24T23:37:34.985Z,45.00
2022-08-24T23:40:01.996Z,43.75
2022-08-24T23:42:29.033Z,44.00
2022-08-24T23:44:55.856Z,45.00
2022-08-24T23:47:24.082Z,44.00
2022-08-24T23:49:50.910Z,43.50
2022-08-24T23:52:27.249Z,43.50
2022-08-24T23:55:07.061Z,44.25
2022-08-24T23:57:46.440Z,45.00
